Time;durP1;ratioP1;P1;durP2;ratioP2;P2;SDS_P1;SDS_P2;PMS_P1;PMS_P2;Temp;Humidity;BMP_temperature;BMP_pressure;BME280_temperature;BME280_humidity;BME280_pressure;Samples;Min_cycle;Max_cycle;Signal;HPM_P1;HPM_P2
2024/01/24 00:01:59;;;;;;;1.50;0.30;;;;;;;;;;5057009;28;20510;-78
2024/01/24 00:04:26;;;;;;;0.88;0.50;;;;;;;;;;5031297;28;20028;-78
2024/01/24 00:06:58;;;;;;;2.72;0.73;;;;;;;;;;5049557;28;20029;-80
2024/01/24 00:09:24;;;;;;;2.08;0.57;;;;;;;;;;5047878;28;20112;-78
2024/01/24 00:11:51;;;;;;;1.17;0.50;;;;;;;;;;5058835;28;20021;-79
2024/01/24 00:14:17;;;;;;;1.48;0.57;;;;;;;;;;5044355;28;20535;-80
2024/01/24 00:16:43;;;;;;;1.42;0.60;;;;;;;;;;5054052;28;20039;-78
2024/01/24 00:19:09;;;;;;;1.63;0.43;;;;;;;;;;5048067;28;20017;-78
2024/01/24 00:21:37;;;;;;;1.15;0.50;;;;;;;;;;5064567;28;20101;-81
2024/01/24 00:24:03;;;;;;;0.30;0.30;;;;;;;;;;5063078;28;20519;-78
2024/01/24 00:26:29;;;;;;;0.47;0.30;;;;;;;;;;5047005;28;20080;-78
2024/01/24 00:28:55;;;;;;;1.00;0.25;;;;;;;;;;5040364;28;20025;-78
2024/01/24 00:31:22;;;;;;;0.45;0.30;;;;;;;;;;5030458;28;20499;-79
2024/01/24 00:33:52;;;;;;;0.68;0.35;;;;;;;;;;5034843;28;20093;-78
2024/01/24 00:36:18;;;;;;;0.25;0.25;;;;;;;;;;5048223;28;20021;-79
2024/01/24 00:38:44;;;;;;;1.17;0.57;;;;;;;;;;5037338;28;20033;-80
2024/01/24 00:41:10;;;;;;;0.40;0.30;;;;;;;;;;5032901;28;20025;-78
2024/01/24 00:43:36;;;;;;;0.25;0.25;;;;;;;;;;5042924;28;20039;-80
2024/01/24 00:46:03;;;;;;;0.82;0.25;;;;;;;;;;5042998;28;20468;-79
2024/01/24 00:48:29;;;;;;;0.45;0.10;;;;;;;;;;5046370;28;20021;-78
2024/01/24 00:50:55;;;;;;;0.28;0.22;;;;;;;;;;5043265;28;20021;-77
2024/01/24 00:53:21;;;;;;;0.20;0.20;;;;;;;;;;5040971;28;20036;-79
2024/01/24 00:55:48;;;;;;;0.20;0.20;;;;;;;;;;5042255;28;20036;-78
2024/01/24 00:58:14;;;;;;;0.15;0.15;;;;;;;;;;5044007;28;20045;-79
2024/01/24 01:00:40;;;;;;;0.17;0.17;;;;;;;;;;5041412;28;20022;-78
2024/01/24 01:03:08;;;;;;;0.20;0.20;;;;;;;;;;5043571;28;20129;-78
2024/01/24 01:05:34;;;;;;;0.30;0.20;;;;;;;;;;5035223;28;20029;-80
2024/01/24 01:08:00;;;;;;;1.48;0.50;;;;;;;;;;5046807;28;20029;-80
2024/01/24 01:10:27;;;;;;;1.58;0.43;;;;;;;;;;5036442;28;20097;-79
2024/01/24 01:12:54;;;;;;;0.82;0.52;;;;;;;;;;5044849;28;20017;-78
2024/01/24 01:15:20;;;;;;;0.40;0.40;;;;;;;;;;5036125;28;20435;-79
2024/01/24 01:17:47;;;;;;;2.92;0.80;;;;;;;;;;5041824;28;20144;-79
2024/01/24 01:20:18;;;;;;;1.10;0.63;;;;;;;;;;5041875;28;20104;-78
2024/01/24 01:22:45;;;;;;;1.15;1.00;;;;;;;;;;5042700;28;20077;-79
2024/01/24 01:25:11;;;;;;;1.20;0.68;;;;;;;;;;5035683;28;20022;-78
2024/01/24 01:27:37;;;;;;;0.73;0.60;;;;;;;;;;5033604;28;20029;-79
2024/01/24 01:30:04;;;;;;;1.17;0.40;;;;;;;;;;5038924;28;20033;-81
2024/01/24 01:32:30;;;;;;;0.45;0.45;;;;;;;;;;5046157;28;20037;-80
2024/01/24 01:34:57;;;;;;;0.30;0.30;;;;;;;;;;5055177;28;20087;-79
2024/01/24 01:37:24;;;;;;;0.55;0.40;;;;;;;;;;5048230;28;20208;-82
2024/01/24 01:39:50;;;;;;;0.45;0.20;;;;;;;;;;5047710;28;20026;-82
2024/01/24 01:42:17;;;;;;;0.98;0.20;;;;;;;;;;5054493;28;20025;-81
2024/01/24 01:44:46;;;;;;;0.20;0.20;;;;;;;;;;5047273;28;20026;-82
2024/01/24 01:47:13;;;;;;;0.35;0.10;;;;;;;;;;5052316;28;20094;-81
2024/01/24 01:49:40;;;;;;;0.25;0.10;;;;;;;;;;5053407;28;20061;-80
2024/01/24 01:52:09;;;;;;;0.10;0.10;;;;;;;;;;5052815;28;20440;-81
2024/01/24 01:54:35;;;;;;;0.93;0.25;;;;;;;;;;5050717;28;20036;-81
2024/01/24 01:57:02;;;;;;;0.17;0.10;;;;;;;;;;5049688;28;20374;-81
2024/01/24 01:59:28;;;;;;;0.20;0.15;;;;;;;;;;5049983;28;20144;-80
2024/01/24 02:01:55;;;;;;;0.98;0.08;;;;;;;;;;5050086;28;20030;-80
2024/01/24 02:04:21;;;;;;;0.90;0.30;;;;;;;;;;5051986;28;20025;-80
2024/01/24 02:06:48;;;;;;;1.45;0.30;;;;;;;;;;5052741;28;20088;-80
2024/01/24 02:09:14;;;;;;;0.55;0.20;;;;;;;;;;5051404;28;20124;-81
2024/01/24 02:11:43;;;;;;;0.30;0.30;;;;;;;;;;5035190;28;20030;-80
2024/01/24 02:14:11;;;;;;;0.52;0.30;;;;;;;;;;5038622;28;20594;-80
2024/01/24 02:16:37;;;;;;;0.32;0.20;;;;;;;;;;5045291;28;20066;-81
2024/01/24 02:19:04;;;;;;;0.40;0.30;;;;;;;;;;5050874;28;20049;-80
2024/01/24 02:21:31;;;;;;;0.40;0.20;;;;;;;;;;5043311;28;20030;-81
2024/01/24 02:23:58;;;;;;;0.10;0.10;;;;;;;;;;5045147;28;20026;-80
2024/01/24 02:26:24;;;;;;;0.93;0.20;;;;;;;;;;5046342;28;20046;-81
2024/01/24 02:28:50;;;;;;;0.80;0.08;;;;;;;;;;5042546;28;20036;-79
2024/01/24 02:31:16;;;;;;;0.00;0.00;;;;;;;;;;5036448;28;20024;-79
2024/01/24 02:33:43;;;;;;;0.45;0.35;;;;;;;;;;5044076;28;20064;-79
2024/01/24 02:36:10;;;;;;;1.75;0.30;;;;;;;;;;5048225;28;20085;-80
2024/01/24 02:38:36;;;;;;;0.75;0.20;;;;;;;;;;5044239;28;20033;-80
2024/01/24 02:41:02;;;;;;;0.10;0.10;;;;;;;;;;5039650;28;20038;-80
2024/01/24 02:43:28;;;;;;;0.15;0.10;;;;;;;;;;5048049;28;20029;-78
2024/01/24 02:45:54;;;;;;;1.08;0.20;;;;;;;;;;5050160;28;20029;-80
2024/01/24 02:48:20;;;;;;;0.40;0.40;;;;;;;;;;5050340;28;20055;-80
2024/01/24 02:50:46;;;;;;;0.55;0.38;;;;;;;;;;5046247;28;20029;-79
2024/01/24 02:53:12;;;;;;;0.20;0.20;;;;;;;;;;5051688;28;20101;-79
2024/01/24 02:55:39;;;;;;;0.45;0.15;;;;;;;;;;5052322;28;20441;-80
2024/01/24 02:58:05;;;;;;;2.20;0.10;;;;;;;;;;5050966;28;20468;-81
2024/01/24 03:00:31;;;;;;;0.30;0.10;;;;;;;;;;5052301;28;20021;-80
2024/01/24 03:02:57;;;;;;;0.80;0.20;;;;;;;;;;5050034;28;20037;-81
2024/01/24 03:05:23;;;;;;;0.20;0.10;;;;;;;;;;5050259;28;20022;-80
2024/01/24 03:07:49;;;;;;;0.10;0.10;;;;;;;;;;5051968;28;20029;-80
2024/01/24 03:10:15;;;;;;;2.05;0.10;;;;;;;;;;5034678;28;20116;-80
2024/01/24 03:12:42;;;;;;;0.15;0.15;;;;;;;;;;5042412;28;20051;-80
2024/01/24 03:15:08;;;;;;;1.10;0.52;;;;;;;;;;5051779;28;20017;-81
2024/01/24 03:17:34;;;;;;;0.10;0.10;;;;;;;;;;5048580;28;20041;-80
2024/01/24 03:20:00;;;;;;;0.13;0.10;;;;;;;;;;5040925;28;20028;-81
2024/01/24 03:22:27;;;;;;;0.30;0.17;;;;;;;;;;5038940;28;20083;-80
2024/01/24 03:24:53;;;;;;;0.20;0.13;;;;;;;;;;5053386;28;20037;-80
2024/01/24 03:27:19;;;;;;;0.30;0.25;;;;;;;;;;5050436;28;20025;-81
2024/01/24 03:29:45;;;;;;;0.10;0.10;;;;;;;;;;5051984;28;20099;-82
2024/01/24 03:32:11;;;;;;;0.85;0.30;;;;;;;;;;5047586;28;20025;-81
2024/01/24 03:34:37;;;;;;;0.10;0.10;;;;;;;;;;5036906;28;20018;-81
2024/01/24 03:37:05;;;;;;;0.13;0.10;;;;;;;;;;5045864;28;20129;-80
2024/01/24 03:39:35;;;;;;;0.85;0.30;;;;;;;;;;5048548;28;20037;-80
2024/01/24 03:42:02;;;;;;;0.68;0.20;;;;;;;;;;5030660;28;20029;-80
2024/01/24 03:44:28;;;;;;;0.13;0.13;;;;;;;;;;5049386;28;20053;-81
2024/01/24 03:46:54;;;;;;;0.57;0.40;;;;;;;;;;5042266;28;20051;-81
2024/01/24 03:49:21;;;;;;;0.57;0.28;;;;;;;;;;5039925;28;20026;-81
2024/01/24 03:51:47;;;;;;;0.20;0.20;;;;;;;;;;5037993;28;20032;-81
2024/01/24 03:54:13;;;;;;;0.30;0.22;;;;;;;;;;5038759;28;20029;-80
2024/01/24 03:56:40;;;;;;;0.10;0.10;;;;;;;;;;5036336;28;20026;-79
2024/01/24 03:59:06;;;;;;;0.45;0.20;;;;;;;;;;5030392;28;20033;-79
2024/01/24 04:01:32;;;;;;;0.10;0.10;;;;;;;;;;5038353;28;20022;-80
2024/01/24 04:03:58;;;;;;;0.30;0.22;;;;;;;;;;5040631;28;20026;-80
2024/01/24 04:06:24;;;;;;;0.30;0.10;;;;;;;;;;5044234;28;20029;-80
2024/01/24 04:08:50;;;;;;;0.10;0.10;;;;;;;;;;5038496;28;20029;-80
2024/01/24 04:11:16;;;;;;;0.20;0.20;;;;;;;;;;5035278;28;20030;-79
2024/01/24 04:13:43;;;;;;;0.25;0.20;;;;;;;;;;5045203;28;20033;-79
2024/01/24 04:16:09;;;;;;;0.22;0.22;;;;;;;;;;5051277;28;20182;-79
2024/01/24 04:18:35;;;;;;;0.25;0.20;;;;;;;;;;5051042;28;20021;-79
2024/01/24 04:21:01;;;;;;;0.08;0.08;;;;;;;;;;5047747;28;20384;-79
2024/01/24 04:23:28;;;;;;;0.20;0.20;;;;;;;;;;5047504;28;20028;-79
2024/01/24 04:25:55;;;;;;;0.88;0.30;;;;;;;;;;5038806;28;20017;-80
2024/01/24 04:28:21;;;;;;;0.20;0.20;;;;;;;;;;5042900;28;20025;-79
2024/01/24 04:30:47;;;;;;;0.43;0.20;;;;;;;;;;5048755;28;20043;-79
2024/01/24 04:33:14;;;;;;;0.82;0.28;;;;;;;;;;5047729;28;20044;-80
2024/01/24 04:35:40;;;;;;;0.22;0.22;;;;;;;;;;5034603;28;20033;-80
2024/01/24 04:38:06;;;;;;;0.30;0.30;;;;;;;;;;5044003;28;20029;-79
2024/01/24 04:40:33;;;;;;;0.20;0.20;;;;;;;;;;5046563;28;20017;-80
2024/01/24 04:43:01;;;;;;;0.20;0.10;;;;;;;;;;5045081;28;20086;-78
2024/01/24 04:45:27;;;;;;;0.85;0.20;;;;;;;;;;5030173;28;20065;-79
2024/01/24 04:47:53;;;;;;;0.38;0.20;;;;;;;;;;5035233;28;20161;-79
2024/01/24 04:50:19;;;;;;;0.20;0.20;;;;;;;;;;5041691;28;20056;-79
2024/01/24 04:52:46;;;;;;;1.33;0.20;;;;;;;;;;5039068;28;20138;-80
2024/01/24 04:55:12;;;;;;;1.85;0.30;;;;;;;;;;5045739;28;20029;-80
2024/01/24 04:57:39;;;;;;;0.35;0.10;;;;;;;;;;5043915;28;20029;-80
2024/01/24 05:00:09;;;;;;;0.45;0.20;;;;;;;;;;5044656;28;20036;-79
2024/01/24 05:02:35;;;;;;;1.42;0.40;;;;;;;;;;5042882;28;20033;-79
2024/01/24 05:05:01;;;;;;;0.10;0.10;;;;;;;;;;5038898;28;20033;-78
2024/01/24 05:07:27;;;;;;;0.32;0.15;;;;;;;;;;5041450;28;20056;-78
2024/01/24 05:09:53;;;;;;;1.42;0.30;;;;;;;;;;5037786;28;20064;-78
2024/01/24 05:12:20;;;;;;;0.30;0.20;;;;;;;;;;5037521;28;20025;-79
2024/01/24 05:14:46;;;;;;;0.55;0.20;;;;;;;;;;5036706;28;20025;-79
2024/01/24 05:17:12;;;;;;;1.17;0.30;;;;;;;;;;5035001;28;20040;-78
2024/01/24 05:19:38;;;;;;;0.35;0.20;;;;;;;;;;5035951;28;20021;-78
2024/01/24 05:22:05;;;;;;;0.38;0.30;;;;;;;;;;5038869;28;20038;-78
2024/01/24 05:24:31;;;;;;;0.45;0.30;;;;;;;;;;5044828;28;20041;-79
2024/01/24 05:26:58;;;;;;;0.30;0.20;;;;;;;;;;5045983;28;20025;-78
2024/01/24 05:29:24;;;;;;;0.60;0.32;;;;;;;;;;5045936;28;20021;-79
2024/01/24 05:31:50;;;;;;;0.30;0.30;;;;;;;;;;5054810;28;20022;-80
2024/01/24 05:34:17;;;;;;;0.20;0.20;;;;;;;;;;5054754;28;20116;-80
2024/01/24 05:36:43;;;;;;;0.20;0.20;;;;;;;;;;5055331;28;20044;-78
2024/01/24 05:39:09;;;;;;;0.20;0.20;;;;;;;;;;5046447;28;20026;-79
2024/01/24 05:41:35;;;;;;;0.10;0.10;;;;;;;;;;5045384;28;20034;-80
2024/01/24 05:44:13;;;;;;;0.77;0.22;;;;;;;;;;5040214;28;20432;-79
2024/01/24 05:46:39;;;;;;;0.20;0.20;;;;;;;;;;5030097;28;20026;-78
2024/01/24 05:49:06;;;;;;;0.50;0.20;;;;;;;;;;5027135;28;20052;-78
2024/01/24 05:51:32;;;;;;;0.85;0.30;;;;;;;;;;5035605;28;20022;-78
2024/01/24 05:53:58;;;;;;;0.70;0.20;;;;;;;;;;5034254;28;20025;-78
2024/01/24 05:56:24;;;;;;;1.38;0.20;;;;;;;;;;5027158;28;20041;-78
2024/01/24 05:58:50;;;;;;;0.80;0.35;;;;;;;;;;5027834;28;20500;-79
2024/01/24 06:01:16;;;;;;;0.50;0.32;;;;;;;;;;5026245;28;20025;-78
2024/01/24 06:03:42;;;;;;;0.40;0.40;;;;;;;;;;5035671;28;20021;-78
2024/01/24 06:06:08;;;;;;;0.52;0.40;;;;;;;;;;5022330;28;20022;-78
2024/01/24 06:08:35;;;;;;;1.35;0.80;;;;;;;;;;5038417;28;20044;-79
2024/01/24 06:11:01;;;;;;;0.85;0.50;;;;;;;;;;5030465;28;20401;-79
2024/01/24 06:13:27;;;;;;;0.30;0.30;;;;;;;;;;5036123;28;20025;-77
2024/01/24 06:15:53;;;;;;;0.25;0.25;;;;;;;;;;5033206;28;20137;-77
2024/01/24 06:18:21;;;;;;;0.63;0.30;;;;;;;;;;5031008;28;20030;-79
2024/01/24 06:20:47;;;;;;;0.20;0.20;;;;;;;;;;5035335;28;20460;-77
2024/01/24 06:23:13;;;;;;;0.30;0.30;;;;;;;;;;5031644;28;20022;-79
2024/01/24 06:25:39;;;;;;;0.65;0.20;;;;;;;;;;5042684;28;20028;-78
2024/01/24 06:28:05;;;;;;;0.30;0.30;;;;;;;;;;5032152;28;20414;-78
2024/01/24 06:30:32;;;;;;;0.32;0.20;;;;;;;;;;5034757;28;20032;-82
2024/01/24 06:32:58;;;;;;;0.38;0.30;;;;;;;;;;5045450;28;20049;-83
2024/01/24 06:35:24;;;;;;;0.17;0.17;;;;;;;;;;5046356;28;20037;-83
2024/01/24 06:37:53;;;;;;;0.57;0.20;;;;;;;;;;5047787;28;20029;-83
2024/01/24 06:40:19;;;;;;;0.40;0.40;;;;;;;;;;5050787;28;20025;-83
2024/01/24 06:42:46;;;;;;;2.38;0.30;;;;;;;;;;5045004;28;20378;-83
2024/01/24 06:45:12;;;;;;;0.65;0.20;;;;;;;;;;5191591;22;20048;-84
2024/01/24 06:47:38;;;;;;;0.73;0.30;;;;;;;;;;5090738;28;20101;-82
2024/01/24 06:50:07;;;;;;;1.17;0.38;;;;;;;;;;5093786;28;20035;-82
2024/01/24 06:52:33;;;;;;;1.85;0.68;;;;;;;;;;5088275;28;20395;-82
2024/01/24 06:55:00;;;;;;;2.38;0.50;;;;;;;;;;5088121;28;20024;-82
2024/01/24 06:57:26;;;;;;;1.42;0.30;;;;;;;;;;5088711;28;20048;-83
2024/01/24 06:59:53;;;;;;;1.20;0.50;;;;;;;;;;5081357;28;20029;-81
2024/01/24 07:02:19;;;;;;;1.33;0.40;;;;;;;;;;5096627;28;20028;-80
2024/01/24 07:04:45;;;;;;;4.35;0.52;;;;;;;;;;5088233;28;20025;-81
2024/01/24 07:07:12;;;;;;;0.47;0.40;;;;;;;;;;5099325;28;20055;-80
2024/01/24 07:09:38;;;;;;;0.75;0.30;;;;;;;;;;5093841;28;20035;-81
2024/01/24 07:12:05;;;;;;;0.82;0.40;;;;;;;;;;5086652;28;20074;-81
2024/01/24 07:14:31;;;;;;;1.55;0.30;;;;;;;;;;5084494;28;20065;-81
2024/01/24 07:16:57;;;;;;;0.30;0.30;;;;;;;;;;5082589;28;20097;-82
2024/01/24 07:19:23;;;;;;;1.40;0.60;;;;;;;;;;5086757;28;20518;-81
2024/01/24 07:21:49;;;;;;;0.65;0.50;;;;;;;;;;5092837;28;20101;-81
2024/01/24 07:24:16;;;;;;;0.47;0.30;;;;;;;;;;5088282;28;20028;-82
2024/01/24 07:26:42;;;;;;;0.65;0.30;;;;;;;;;;5072210;28;20025;-82
2024/01/24 07:29:09;;;;;;;1.38;0.30;;;;;;;;;;5090654;28;20104;-83
2024/01/24 07:31:35;;;;;;;1.70;0.50;;;;;;;;;;5094207;28;20161;-82
2024/01/24 07:34:02;;;;;;;0.75;0.20;;;;;;;;;;5079404;28;20065;-80
2024/01/24 07:36:28;;;;;;;0.55;0.38;;;;;;;;;;5090061;28;20042;-82
2024/01/24 07:38:54;;;;;;;0.28;0.20;;;;;;;;;;5083411;28;20020;-81
2024/01/24 07:41:20;;;;;;;0.40;0.38;;;;;;;;;;5084628;28;20039;-82
2024/01/24 07:43:46;;;;;;;0.85;0.35;;;;;;;;;;5094423;28;20056;-83
2024/01/24 07:46:12;;;;;;;1.80;0.47;;;;;;;;;;5082738;28;20048;-81
2024/01/24 07:48:38;;;;;;;0.43;0.32;;;;;;;;;;5081491;28;20050;-83
2024/01/24 07:51:06;;;;;;;0.45;0.30;;;;;;;;;;5091247;28;20044;-82
2024/01/24 07:53:32;;;;;;;0.35;0.30;;;;;;;;;;5091285;28;20075;-82
2024/01/24 07:55:59;;;;;;;1.85;0.32;;;;;;;;;;5092826;28;20059;-82
2024/01/24 07:58:27;;;;;;;2.47;0.40;;;;;;;;;;5092003;28;20039;-82
2024/01/24 08:00:54;;;;;;;1.00;0.40;;;;;;;;;;5082250;28;20166;-82
2024/01/24 08:03:20;;;;;;;0.93;0.50;;;;;;;;;;5090508;28;20075;-81
2024/01/24 08:05:47;;;;;;;2.20;0.60;;;;;;;;;;5085118;28;20088;-82
2024/01/24 08:08:13;;;;;;;2.05;0.60;;;;;;;;;;5088885;28;20084;-82
2024/01/24 08:10:40;;;;;;;3.20;0.70;;;;;;;;;;5095598;28;20044;-82
2024/01/24 08:13:06;;;;;;;3.75;0.52;;;;;;;;;;5085118;28;20013;-81
2024/01/24 08:15:33;;;;;;;2.33;0.43;;;;;;;;;;5091385;28;20070;-82
2024/01/24 08:17:59;;;;;;;1.50;0.55;;;;;;;;;;5089925;28;20024;-82
2024/01/24 08:20:25;;;;;;;0.63;0.45;;;;;;;;;;5093787;28;20021;-82
2024/01/24 08:22:52;;;;;;;1.13;0.75;;;;;;;;;;5093573;27;20475;-81
2024/01/24 08:25:18;;;;;;;0.65;0.25;;;;;;;;;;5083873;28;20044;-82
2024/01/24 08:27:44;;;;;;;2.33;0.75;;;;;;;;;;5090154;28;20020;-82
2024/01/24 08:30:12;;;;;;;0.38;0.35;;;;;;;;;;5072019;28;20025;-82
2024/01/24 08:32:40;;;;;;;1.35;0.43;;;;;;;;;;5094847;28;20025;-82
2024/01/24 08:35:08;;;;;;;0.60;0.30;;;;;;;;;;5094599;28;20008;-81
2024/01/24 08:37:34;;;;;;;2.47;0.55;;;;;;;;;;5091368;28;20078;-82
2024/01/24 08:40:00;;;;;;;0.32;0.30;;;;;;;;;;5088934;28;20031;-82
2024/01/24 08:42:32;;;;;;;0.30;0.30;;;;;;;;;;5087393;28;20099;-81
2024/01/24 08:44:58;;;;;;;0.98;0.30;;;;;;;;;;5085794;28;20131;-81
2024/01/24 08:47:25;;;;;;;2.08;0.55;;;;;;;;;;5087566;28;20040;-81
2024/01/24 08:49:53;;;;;;;0.68;0.50;;;;;;;;;;5086491;28;20021;-82
2024/01/24 08:52:19;;;;;;;0.40;0.40;;;;;;;;;;5085812;28;20025;-81
2024/01/24 08:54:45;;;;;;;1.55;0.47;;;;;;;;;;5086381;28;20024;-81
2024/01/24 08:57:11;;;;;;;1.05;0.40;;;;;;;;;;5087386;28;20058;-81
2024/01/24 08:59:38;;;;;;;1.27;0.50;;;;;;;;;;5078891;28;20020;-82
2024/01/24 09:02:06;;;;;;;0.60;0.50;;;;;;;;;;5087767;28;20056;-81
2024/01/24 09:04:33;;;;;;;0.75;0.30;;;;;;;;;;5087304;28;20020;-82
2024/01/24 09:06:59;;;;;;;3.05;0.57;;;;;;;;;;5084947;28;20101;-81
2024/01/24 09:09:25;;;;;;;4.38;1.27;;;;;;;;;;5074847;28;20031;-82
2024/01/24 09:11:52;;;;;;;0.95;0.60;;;;;;;;;;5079501;28;20054;-82
2024/01/24 09:14:19;;;;;;;0.52;0.50;;;;;;;;;;5086599;28;20046;-82
2024/01/24 09:16:45;;;;;;;0.50;0.40;;;;;;;;;;5085883;28;20016;-82
2024/01/24 09:19:12;;;;;;;0.95;0.40;;;;;;;;;;5070035;28;20029;-82
2024/01/24 09:21:39;;;;;;;0.45;0.45;;;;;;;;;;5102810;28;20100;-82
2024/01/24 09:24:06;;;;;;;1.73;0.50;;;;;;;;;;5085992;28;20027;-82
2024/01/24 09:26:32;;;;;;;0.60;0.50;;;;;;;;;;5087035;28;20076;-81
2024/01/24 09:28:58;;;;;;;2.05;0.50;;;;;;;;;;5087362;28;20035;-82
2024/01/24 09:31:24;;;;;;;2.10;0.60;;;;;;;;;;5087158;28;20021;-83
2024/01/24 09:33:50;;;;;;;0.85;0.68;;;;;;;;;;5087541;28;20024;-82
2024/01/24 09:36:16;;;;;;;2.72;0.75;;;;;;;;;;5078486;28;20024;-82
2024/01/24 09:38:44;;;;;;;0.57;0.47;;;;;;;;;;5074099;28;20033;-81
2024/01/24 09:41:14;;;;;;;0.50;0.50;;;;;;;;;;5079475;28;20020;-83
2024/01/24 09:43:40;;;;;;;1.33;0.60;;;;;;;;;;5088883;28;20047;-82
2024/01/24 09:46:10;;;;;;;1.17;0.35;;;;;;;;;;5090584;28;20031;-81
2024/01/24 09:48:36;;;;;;;0.85;0.50;;;;;;;;;;5083812;28;20029;-82
2024/01/24 09:51:02;;;;;;;0.52;0.50;;;;;;;;;;5093429;28;20020;-82
2024/01/24 09:53:31;;;;;;;0.50;0.50;;;;;;;;;;5090038;28;20025;-81
2024/01/24 09:55:57;;;;;;;1.58;0.60;;;;;;;;;;5099309;28;20020;-82
2024/01/24 09:58:23;;;;;;;0.47;0.47;;;;;;;;;;5107215;27;20120;-81
2024/01/24 10:00:52;;;;;;;0.52;0.45;;;;;;;;;;5099266;27;20017;-82
2024/01/24 10:03:20;;;;;;;1.42;0.40;;;;;;;;;;5098395;27;20021;-82
2024/01/24 10:05:47;;;;;;;0.55;0.40;;;;;;;;;;5098775;27;20013;-81
2024/01/24 10:08:15;;;;;;;1.05;0.40;;;;;;;;;;5094775;28;20046;-81
2024/01/24 10:10:42;;;;;;;2.10;0.70;;;;;;;;;;5099348;27;20021;-82
2024/01/24 10:13:08;;;;;;;0.70;0.43;;;;;;;;;;5097991;27;20032;-82
2024/01/24 10:15:36;;;;;;;1.35;0.57;;;;;;;;;;5094959;27;20050;-82
2024/01/24 10:18:02;;;;;;;1.10;0.40;;;;;;;;;;5088471;28;20035;-81
2024/01/24 10:20:29;;;;;;;3.33;0.70;;;;;;;;;;5087917;28;20535;-81
2024/01/24 10:22:55;;;;;;;0.77;0.60;;;;;;;;;;5081316;28;20089;-82
2024/01/24 10:25:22;;;;;;;0.85;0.60;;;;;;;;;;5089462;28;20078;-82
2024/01/24 10:27:48;;;;;;;2.20;0.65;;;;;;;;;;5085585;28;20043;-82
2024/01/24 10:30:15;;;;;;;1.15;0.65;;;;;;;;;;5084563;28;20025;-81
2024/01/24 10:32:48;;;;;;;0.85;0.50;;;;;;;;;;5086221;28;20031;-82
2024/01/24 10:35:16;;;;;;;3.15;0.65;;;;;;;;;;5093333;28;20017;-82
2024/01/24 10:37:42;;;;;;;1.55;0.73;;;;;;;;;;5093669;28;20032;-81
2024/01/24 10:40:11;;;;;;;3.83;0.82;;;;;;;;;;5090726;28;20032;-81
2024/01/24 10:42:40;;;;;;;2.67;0.68;;;;;;;;;;5085315;28;20030;-83
2024/01/24 10:45:07;;;;;;;2.38;0.40;;;;;;;;;;5093502;28;20056;-81
2024/01/24 10:47:34;;;;;;;6.22;0.68;;;;;;;;;;5088392;28;20032;-82
2024/01/24 10:50:04;;;;;;;1.95;0.73;;;;;;;;;;5097869;28;20044;-82
2024/01/24 10:52:32;;;;;;;2.88;0.70;;;;;;;;;;5089336;28;20028;-82
2024/01/24 10:55:03;;;;;;;0.50;0.50;;;;;;;;;;5087754;28;20290;-82
2024/01/24 10:57:30;;;;;;;3.20;0.65;;;;;;;;;;5081964;28;20064;-82
2024/01/24 10:59:58;;;;;;;2.28;0.55;;;;;;;;;;5083494;28;20021;-81
2024/01/24 11:02:24;;;;;;;0.90;0.65;;;;;;;;;;5079628;28;20025;-81
2024/01/24 11:04:53;;;;;;;0.35;0.35;;;;;;;;;;5088449;28;20025;-82
2024/01/24 11:07:26;;;;;;;1.85;0.90;;;;;;;;;;5083721;28;20092;-82
2024/01/24 11:10:03;;;;;;;2.97;0.80;;;;;;;;;;5084530;28;20036;-81
2024/01/24 11:12:30;;;;;;;1.17;0.70;;;;;;;;;;5080627;28;20025;-80
2024/01/24 11:15:05;;;;;;;0.30;0.30;;;;;;;;;;5089176;28;20047;-82
2024/01/24 11:17:32;;;;;;;1.25;0.70;;;;;;;;;;5086782;28;20032;-81
2024/01/24 11:19:59;;;;;;;1.83;0.70;;;;;;;;;;5086327;28;20040;-81
2024/01/24 11:22:25;;;;;;;3.42;0.50;;;;;;;;;;5094322;28;20029;-83
2024/01/24 11:24:52;;;;;;;3.63;0.57;;;;;;;;;;5082418;28;20028;-81
2024/01/24 11:27:37;;;;;;;0.90;0.50;;;;;;;;;;5088601;28;20025;-82
2024/01/24 11:30:06;;;;;;;0.70;0.70;;;;;;;;;;5088595;28;20029;-81
2024/01/24 11:32:45;;;;;;;1.05;0.47;;;;;;;;;;5080190;28;20035;-83
2024/01/24 11:35:27;;;;;;;0.85;0.50;;;;;;;;;;5095888;28;20016;-82
2024/01/24 11:37:57;;;;;;;0.90;0.60;;;;;;;;;;5096981;28;20028;-81
2024/01/24 11:40:23;;;;;;;1.85;0.90;;;;;;;;;;5096217;28;20020;-82
2024/01/24 11:43:03;;;;;;;0.98;0.57;;;;;;;;;;5096842;27;20081;-83
2024/01/24 11:45:30;;;;;;;1.08;0.80;;;;;;;;;;5094429;27;20031;-82
2024/01/24 11:47:57;;;;;;;0.93;0.60;;;;;;;;;;5081734;28;20044;-82
2024/01/24 11:50:23;;;;;;;1.05;0.50;;;;;;;;;;5097002;27;20016;-81
2024/01/24 11:52:50;;;;;;;3.00;0.43;;;;;;;;;;5088741;28;20289;-81
2024/01/24 11:55:17;;;;;;;1.35;0.60;;;;;;;;;;5089718;28;20027;-82
2024/01/24 11:57:43;;;;;;;3.17;0.50;;;;;;;;;;5087714;28;20023;-81
2024/01/24 12:00:11;;;;;;;2.33;0.65;;;;;;;;;;5097416;28;20034;-82
2024/01/24 12:02:37;;;;;;;2.30;0.68;;;;;;;;;;5095270;27;20020;-82
2024/01/24 12:05:05;;;;;;;0.55;0.55;;;;;;;;;;5109986;27;20025;-82
2024/01/24 12:07:33;;;;;;;2.28;0.60;;;;;;;;;;5069684;28;20157;-82
2024/01/24 12:09:59;;;;;;;1.23;0.68;;;;;;;;;;5081952;28;20021;-82
2024/01/24 12:12:27;;;;;;;1.15;0.50;;;;;;;;;;5086680;28;20012;-82
2024/01/24 12:14:55;;;;;;;3.83;1.23;;;;;;;;;;5091199;28;20092;-81
2024/01/24 12:17:22;;;;;;;7.65;0.60;;;;;;;;;;5089638;28;20043;-83
2024/01/24 12:19:48;;;;;;;5.90;0.82;;;;;;;;;;5088046;28;20092;-82
2024/01/24 12:22:15;;;;;;;0.90;0.40;;;;;;;;;;5088389;28;20025;-83
2024/01/24 12:24:41;;;;;;;0.88;0.47;;;;;;;;;;5096761;28;20058;-80
2024/01/24 12:27:11;;;;;;;0.40;0.40;;;;;;;;;;5081895;28;20029;-82
2024/01/24 12:29:37;;;;;;;3.08;0.45;;;;;;;;;;5086725;28;20049;-82
2024/01/24 12:32:05;;;;;;;2.70;1.17;;;;;;;;;;5089672;28;20024;-82
2024/01/24 12:34:31;;;;;;;0.32;0.32;;;;;;;;;;5084274;28;20017;-82
2024/01/24 12:37:00;;;;;;;2.58;0.40;;;;;;;;;;5076699;28;20028;-82
2024/01/24 12:39:34;;;;;;;1.35;0.55;;;;;;;;;;5078782;28;20028;-81
2024/01/24 12:42:01;;;;;;;0.73;0.30;;;;;;;;;;5087331;28;20024;-81
2024/01/24 12:44:27;;;;;;;2.97;0.40;;;;;;;;;;5087916;28;20080;-82
2024/01/24 12:46:55;;;;;;;1.10;0.43;;;;;;;;;;5095126;28;20046;-81
2024/01/24 12:49:22;;;;;;;4.18;0.50;;;;;;;;;;5091278;28;20013;-81
2024/01/24 12:51:48;;;;;;;1.35;0.65;;;;;;;;;;5081499;28;20032;-82
2024/01/24 12:54:14;;;;;;;1.25;0.40;;;;;;;;;;5092252;28;20008;-82
2024/01/24 12:56:40;;;;;;;2.15;0.35;;;;;;;;;;5079460;28;20616;-81
2024/01/24 12:59:07;;;;;;;1.17;0.52;;;;;;;;;;5093487;28;20031;-81
2024/01/24 13:01:34;;;;;;;0.95;0.30;;;;;;;;;;5091207;28;20028;-81
2024/01/24 13:04:00;;;;;;;2.28;0.40;;;;;;;;;;5091480;27;20058;-81
2024/01/24 13:06:27;;;;;;;1.88;0.40;;;;;;;;;;5097232;28;20015;-82
2024/01/24 13:08:53;;;;;;;1.85;0.50;;;;;;;;;;5095729;27;20036;-82
2024/01/24 13:11:19;;;;;;;1.30;0.32;;;;;;;;;;5077358;28;20040;-81
2024/01/24 13:13:45;;;;;;;2.33;0.52;;;;;;;;;;5094382;28;20054;-84
2024/01/24 13:16:12;;;;;;;0.63;0.40;;;;;;;;;;5082954;28;20439;-81
2024/01/24 13:18:38;;;;;;;4.95;0.50;;;;;;;;;;5081796;28;20036;-78
2024/01/24 13:21:04;;;;;;;0.35;0.20;;;;;;;;;;5079179;28;20024;-78
2024/01/24 13:23:30;;;;;;;0.43;0.43;;;;;;;;;;5083170;28;20027;-80
2024/01/24 13:25:57;;;;;;;2.00;0.52;;;;;;;;;;5083919;28;20044;-79
2024/01/24 13:28:23;;;;;;;1.25;0.52;;;;;;;;;;5077934;28;20499;-79
2024/01/24 13:30:49;;;;;;;1.45;0.50;;;;;;;;;;5083422;28;20028;-78
2024/01/24 13:33:16;;;;;;;1.65;0.43;;;;;;;;;;5087353;28;20021;-76
2024/01/24 13:35:43;;;;;;;1.25;0.40;;;;;;;;;;5075827;28;20040;-78
2024/01/24 13:38:09;;;;;;;1.40;0.70;;;;;;;;;;5084004;28;20096;-80
2024/01/24 13:40:36;;;;;;;2.55;0.40;;;;;;;;;;5074779;28;20032;-80
2024/01/24 13:43:02;;;;;;;1.60;0.50;;;;;;;;;;5082369;28;20038;-78
2024/01/24 13:45:28;;;;;;;0.35;0.30;;;;;;;;;;5073935;28;20048;-78
2024/01/24 13:47:55;;;;;;;1.40;0.65;;;;;;;;;;5078208;28;20021;-79
2024/01/24 13:50:21;;;;;;;0.63;0.45;;;;;;;;;;5072725;28;20052;-78
2024/01/24 13:52:47;;;;;;;1.02;0.30;;;;;;;;;;5082854;28;20024;-79
2024/01/24 13:55:13;;;;;;;0.50;0.30;;;;;;;;;;5067735;28;20035;-79
2024/01/24 13:57:41;;;;;;;2.30;0.50;;;;;;;;;;5083819;28;20371;-77
2024/01/24 14:00:10;;;;;;;2.08;0.30;;;;;;;;;;5082430;28;20020;-78
2024/01/24 14:02:36;;;;;;;0.77;0.47;;;;;;;;;;5083620;28;20503;-79
2024/01/24 14:05:02;;;;;;;0.55;0.50;;;;;;;;;;5083004;28;20040;-78
2024/01/24 14:07:28;;;;;;;0.40;0.40;;;;;;;;;;5076374;28;20109;-77
2024/01/24 14:09:55;;;;;;;1.17;0.60;;;;;;;;;;5077887;28;20020;-78
2024/01/24 14:12:21;;;;;;;0.82;0.45;;;;;;;;;;5081424;28;20029;-78
2024/01/24 14:14:47;;;;;;;1.05;0.43;;;;;;;;;;5073037;28;20017;-79
2024/01/24 14:17:13;;;;;;;1.55;0.75;;;;;;;;;;5085851;28;20024;-78
2024/01/24 14:19:39;;;;;;;0.70;0.30;;;;;;;;;;5084103;28;20048;-79
2024/01/24 14:22:06;;;;;;;1.15;0.30;;;;;;;;;;5076155;28;20025;-79
2024/01/24 14:24:32;;;;;;;4.55;0.50;;;;;;;;;;5072450;28;20093;-80
2024/01/24 14:26:58;;;;;;;0.30;0.30;;;;;;;;;;5080536;28;20127;-80
2024/01/24 14:29:24;;;;;;;0.55;0.35;;;;;;;;;;5081701;28;20024;-81
2024/01/24 14:31:51;;;;;;;0.95;0.35;;;;;;;;;;5079881;28;20016;-80
2024/01/24 14:34:17;;;;;;;2.90;0.40;;;;;;;;;;5074190;28;20036;-78
2024/01/24 14:36:43;;;;;;;0.30;0.30;;;;;;;;;;5076662;28;20017;-77
2024/01/24 14:39:10;;;;;;;0.73;0.30;;;;;;;;;;5086452;28;20041;-78
2024/01/24 14:41:36;;;;;;;2.20;0.40;;;;;;;;;;5085227;28;20122;-79